K4BM

Wilkerson Pass Airport

Wilkerson Pass, Colorado, USA
METAR K4BM 230754Z AUTO 22009G21KT 10SM BKN085 M15/M18 A2988 RMK AO2 LTG DSNT N AND NW
Observed Flight Rules
Feb-23 @ 07:54 UTC (25 minutes ago) Visual Flight Rules
Wind Visibility Clouds
220° at 9 knots
 Gusting to 21 knots
10 miles
  • Broken at 8,500' AGL
Temperatures Readings
Current -15°C / 5°F
Dewpoint -18°C / -0°F
Humidity 78%
Altimeter 29.88" Hg
Pressure 1012 hPa
Elevation 3438
METAR K4BM 230754Z AUTO 22009G21KT 10SM BKN085 M15/M18 A2988 RMK AO2 LTG DSNT N AND NW
Observed Flight Rules
Feb-23 @ 07:54 UTC
(25 minutes ago)
VFR
Wind Visibility
220° at 9 knots
 Gusting to 21 knots
10 miles
Clouds
  • Broken at 8,500' AGL
Temperature Dewpoint
-15°C / 5°F -18°C / -0°F
Humidity Altimeter Pressure
78% 29.88" Hg 1012 hPa